Time;durP1;ratioP1;P1;durP2;ratioP2;P2;SDS_P1;SDS_P2;PMS_P1;PMS_P2;Temp;Humidity;BMP_temperature;BMP_pressure;BME280_temperature;BME280_humidity;BME280_pressure;Samples;Min_cycle;Max_cycle;Signal;HPM_P1;HPM_P2
2023/05/08 00:01:22;;;;;;;0.10;0.10;;;;;;;16.16;76.88;100709.41;7353326;19;20014;-65
2023/05/08 00:03:47;;;;;;;0.00;0.00;;;;;;;16.23;76.72;100710.00;7354604;19;20015;-65
2023/05/08 00:06:12;;;;;;;0.00;0.00;;;;;;;16.17;76.29;100690.06;7354031;19;20035;-65
2023/05/08 00:08:38;;;;;;;0.05;0.05;;;;;;;16.30;76.74;100707.00;7352766;19;20039;-65
2023/05/08 00:11:03;;;;;;;0.00;0.00;;;;;;;16.34;76.63;100699.81;7354129;19;20013;-66
2023/05/08 00:13:29;;;;;;;0.03;0.03;;;;;;;16.31;75.82;100692.88;7353830;19;20018;-66
2023/05/08 00:15:54;;;;;;;0.10;0.10;;;;;;;16.39;76.15;100702.22;7345440;19;20007;-66
2023/05/08 00:18:20;;;;;;;0.00;0.00;;;;;;;16.40;76.04;100685.50;7353602;19;20073;-65
2023/05/08 00:20:45;;;;;;;0.10;0.10;;;;;;;16.41;75.98;100692.47;7351981;19;20020;-66
2023/05/08 00:23:11;;;;;;;0.10;0.10;;;;;;;16.41;76.08;100692.47;7353008;19;20420;-65
2023/05/08 00:25:36;;;;;;;0.00;0.00;;;;;;;16.42;75.71;100692.38;7348195;19;20027;-65
2023/05/08 00:28:01;;;;;;;0.10;0.10;;;;;;;16.42;76.12;100688.91;7354456;19;20027;-66
2023/05/08 00:30:27;;;;;;;0.00;0.00;;;;;;;16.44;75.76;100681.78;7352094;19;20017;-65
2023/05/08 00:32:53;;;;;;;0.10;0.10;;;;;;;16.39;75.90;100671.47;7354440;19;20015;-65
2023/05/08 00:35:18;;;;;;;0.10;0.10;;;;;;;16.39;76.07;100671.47;7351640;19;22210;-65
2023/05/08 00:37:43;;;;;;;0.03;0.03;;;;;;;16.44;75.76;100689.69;7350626;19;20010;-65
2023/05/08 00:40:10;;;;;;;0.00;0.00;;;;;;;16.43;75.87;100680.94;7351212;19;20102;-65
2023/05/08 00:42:36;;;;;;;0.00;0.00;;;;;;;16.34;75.07;100665.56;7350576;19;20645;-65
2023/05/08 00:45:02;;;;;;;0.10;0.10;;;;;;;16.37;74.19;100667.16;7352390;19;20018;-66
2023/05/08 00:47:28;;;;;;;0.00;0.00;;;;;;;16.40;73.95;100669.69;7353114;19;20034;-62
2023/05/08 00:49:53;;;;;;;0.00;0.00;;;;;;;16.39;74.55;100675.88;7351114;19;20014;-62
2023/05/08 00:52:19;;;;;;;0.05;0.05;;;;;;;16.35;74.69;100673.38;7353922;19;20351;-62
2023/05/08 00:54:45;;;;;;;0.10;0.10;;;;;;;16.30;75.31;100663.97;7348572;19;20019;-63
2023/05/08 00:57:11;;;;;;;0.00;0.00;;;;;;;16.33;74.67;100675.25;7353243;19;20884;-61
2023/05/08 00:59:40;;;;;;;0.00;0.00;;;;;;;16.12;74.31;100623.56;7352635;19;20019;-61
2023/05/08 01:02:06;;;;;;;0.10;0.10;;;;;;;16.32;73.54;100676.16;7350497;19;20470;-61
2023/05/08 01:04:33;;;;;;;0.10;0.10;;;;;;;16.29;73.94;100657.84;7351897;19;20475;-61
2023/05/08 01:06:59;;;;;;;0.03;0.03;;;;;;;16.24;74.82;100649.31;7353140;19;20018;-61
2023/05/08 01:09:25;;;;;;;0.00;0.00;;;;;;;16.29;73.38;100652.59;7352751;19;20017;-61
2023/05/08 01:12:09;;;;;;;0.00;0.00;;;;;;;16.31;73.37;100649.88;7353356;19;20014;-61
2023/05/08 01:14:37;;;;;;;0.00;0.00;;;;;;;16.28;74.66;100645.63;7352720;19;20015;-62
2023/05/08 01:17:16;;;;;;;0.10;0.10;;;;;;;16.30;73.10;100638.47;7347697;19;20033;-62
2023/05/08 01:20:06;;;;;;;0.00;0.00;;;;;;;16.30;72.18;100638.47;7354132;19;20026;-62
2023/05/08 01:23:00;;;;;;;0.05;0.05;;;;;;;16.28;72.13;100629.81;7351235;19;20010;-61
2023/05/08 01:25:59;;;;;;;0.10;0.10;;;;;;;16.27;72.42;100628.09;7249554;19;2004486;-61
2023/05/08 01:28:43;;;;;;;0.10;0.10;;;;;;;16.27;72.17;100632.50;7251942;19;2004309;-62
2023/05/08 01:31:35;;;;;;;0.00;0.00;;;;;;;16.25;73.32;100627.31;7351414;19;20010;-62
2023/05/08 01:34:13;;;;;;;0.10;0.10;;;;;;;16.23;73.34;100623.03;7249089;19;2004469;-62
2023/05/08 01:37:02;;;;;;;0.10;0.10;;;;;;;16.22;72.23;100634.50;7352564;19;20002;-63
2023/05/08 01:39:50;;;;;;;0.00;0.00;;;;;;;16.21;70.96;100625.72;7352802;19;20025;-62
2023/05/08 01:42:27;;;;;;;0.10;0.10;;;;;;;16.19;71.35;100618.84;7348353;19;20006;-60
2023/05/08 01:44:58;;;;;;;0.00;0.00;;;;;;;16.16;73.45;100619.81;7349380;19;20014;-61
2023/05/08 01:47:29;;;;;;;0.10;0.10;;;;;;;16.17;74.05;100621.56;7357196;19;20010;-62
2023/05/08 01:50:02;;;;;;;0.00;0.00;;;;;;;16.16;74.20;100619.81;7348489;19;20014;-62
2023/05/08 01:52:33;;;;;;;0.00;0.00;;;;;;;16.16;74.21;100625.09;7352386;19;20003;-62
2023/05/08 01:55:04;;;;;;;0.00;0.00;;;;;;;16.14;75.00;100612.94;7349153;19;20030;-63
2023/05/08 01:57:33;;;;;;;0.10;0.10;;;;;;;16.09;74.37;100607.88;7350518;19;20029;-63
2023/05/08 02:00:01;;;;;;;0.00;0.00;;;;;;;16.11;74.59;100606.00;7346322;19;20010;-63
2023/05/08 02:02:30;;;;;;;0.10;0.10;;;;;;;16.13;73.64;100604.19;7354350;19;20028;-63
2023/05/08 02:04:56;;;;;;;0.05;0.05;;;;;;;16.15;72.48;100602.31;7351944;19;20463;-63
2023/05/08 02:07:23;;;;;;;0.10;0.10;;;;;;;16.12;73.80;100607.75;7353309;19;20090;-64
2023/05/08 02:09:50;;;;;;;0.00;0.00;;;;;;;16.12;73.67;100613.03;7350621;19;20022;-66
2023/05/08 02:12:16;;;;;;;0.00;0.00;;;;;;;15.99;73.74;100601.34;7354832;19;20030;-64
2023/05/08 02:14:44;;;;;;;0.10;0.10;;;;;;;16.08;74.83;100617.56;7348699;19;20010;-65
2023/05/08 02:17:11;;;;;;;0.00;0.00;;;;;;;16.08;74.49;100617.56;7353881;19;20016;-65
2023/05/08 02:19:39;;;;;;;0.00;0.00;;;;;;;16.10;74.56;100620.13;7353219;19;20059;-65
2023/05/08 02:22:07;;;;;;;0.00;0.00;;;;;;;16.08;75.42;100611.44;7354477;19;20011;-66
2023/05/08 02:24:33;;;;;;;;;;;;;;;16.13;71.58;100614.72;7349382;19;20086;-66
2023/05/08 02:26:59;;;;;;;0.00;0.00;;;;;;;16.12;74.79;100613.03;7354051;19;19982;-66
2023/05/08 02:29:26;;;;;;;0.08;0.08;;;;;;;16.09;74.94;100602.63;7358161;19;20044;-65
2023/05/08 02:31:53;;;;;;;0.05;0.05;;;;;;;16.13;75.63;100620.00;7356273;19;20291;-66
2023/05/08 02:34:20;;;;;;;0.00;0.00;;;;;;;16.12;75.90;100609.50;7355832;19;20752;-66
2023/05/08 02:36:47;;;;;;;0.00;0.00;;;;;;;16.12;74.91;100606.88;7357164;19;20038;-65
2023/05/08 02:39:14;;;;;;;0.00;0.00;;;;;;;16.08;75.09;100606.19;7359408;19;20073;-66
2023/05/08 02:41:41;;;;;;;0.10;0.10;;;;;;;16.12;74.99;100613.03;7356983;19;20022;-65
2023/05/08 02:44:07;;;;;;;0.10;0.10;;;;;;;16.10;74.51;100612.22;7360918;19;20035;-66
2023/05/08 02:46:55;;;;;;;0.10;0.10;;;;;;;16.11;72.20;100619.19;7355796;19;20035;-66
2023/05/08 02:49:32;;;;;;;0.00;0.00;;;;;;;15.93;73.76;100586.69;7355379;19;20011;-66
2023/05/08 02:52:12;;;;;;;0.00;0.00;;;;;;;16.08;74.72;100616.72;7358144;19;20065;-66
2023/05/08 02:54:50;;;;;;;0.00;0.00;;;;;;;16.06;74.80;100608.00;7356572;19;20006;-66
2023/05/08 02:57:34;;;;;;;0.00;0.00;;;;;;;16.07;73.28;100607.13;7361266;19;20031;-66
2023/05/08 03:00:11;;;;;;;0.08;0.08;;;;;;;16.03;74.47;100598.50;7354499;19;20023;-66
2023/05/08 03:02:41;;;;;;;0.00;0.00;;;;;;;16.01;75.65;100605.59;7359992;19;20014;-66
2023/05/08 03:05:15;;;;;;;0.10;0.10;;;;;;;16.04;75.26;100604.59;7338473;19;20056;-66
2023/05/08 03:07:42;;;;;;;0.10;0.10;;;;;;;16.03;75.94;100603.75;7360067;19;20011;-66
2023/05/08 03:10:12;;;;;;;0.00;0.00;;;;;;;15.94;75.26;100588.38;7359996;19;20026;-66
2023/05/08 03:12:41;;;;;;;0.10;0.10;;;;;;;16.09;74.39;100615.78;7352241;19;20373;-66
2023/05/08 03:15:22;;;;;;;0.00;0.00;;;;;;;16.09;73.81;100597.34;7356741;19;21009;-66
2023/05/08 03:17:53;;;;;;;0.10;0.10;;;;;;;16.11;73.91;100603.38;7356940;19;20017;-66
2023/05/08 03:20:21;;;;;;;0.10;0.10;;;;;;;16.07;74.36;100601.84;7339944;19;20010;-66
2023/05/08 03:22:48;;;;;;;0.10;0.10;;;;;;;16.08;74.19;100595.66;7358376;19;20021;-66
2023/05/08 03:25:16;;;;;;;0.00;0.00;;;;;;;16.06;74.52;100592.22;7353974;19;20069;-66
2023/05/08 03:27:43;;;;;;;0.00;0.00;;;;;;;16.02;74.64;100580.13;7360502;19;20014;-66
2023/05/08 03:30:10;;;;;;;0.10;0.10;;;;;;;16.08;74.44;100587.75;7360555;19;20662;-66
2023/05/08 03:32:37;;;;;;;0.00;0.00;;;;;;;16.07;74.79;100583.41;7354697;19;20025;-66
2023/05/08 03:35:05;;;;;;;0.00;0.00;;;;;;;16.07;74.19;100578.13;7359206;19;20029;-66
2023/05/08 03:37:30;;;;;;;;;;;;;;;16.09;71.95;100576.28;7360805;19;20028;-65
2023/05/08 03:39:56;;;;;;;0.00;0.00;;;;;;;16.06;74.20;100579.03;7354273;19;19919;-66
2023/05/08 03:42:25;;;;;;;0.00;0.00;;;;;;;16.05;73.90;100579.97;7360799;19;21047;-66
2023/05/08 03:44:52;;;;;;;0.00;0.00;;;;;;;16.03;75.40;100576.56;7359580;19;20010;-66
2023/05/08 03:47:18;;;;;;;0.10;0.10;;;;;;;16.02;75.34;100572.22;7358095;19;20022;-66
2023/05/08 03:49:45;;;;;;;0.00;0.00;;;;;;;15.98;75.75;100571.50;7358295;19;20710;-66
2023/05/08 03:52:15;;;;;;;0.00;0.00;;;;;;;15.92;74.90;100557.78;7358459;19;20094;-66
2023/05/08 03:54:41;;;;;;;0.00;0.00;;;;;;;15.98;76.00;100587.31;7358528;19;20372;-66
2023/05/08 03:57:06;;;;;;;0.00;0.00;;;;;;;15.98;75.81;100579.41;7359712;19;20021;-66
2023/05/08 03:59:43;;;;;;;0.00;0.00;;;;;;;16.01;75.23;100581.03;7353910;19;20014;-66
2023/05/08 04:02:21;;;;;;;0.05;0.05;;;;;;;16.01;76.03;100578.41;7359169;19;20676;-66
2023/05/08 04:04:52;;;;;;;0.10;0.10;;;;;;;15.90;76.31;100565.75;7357888;19;20014;-66
2023/05/08 04:07:34;;;;;;;0.10;0.10;;;;;;;16.05;74.80;100588.72;7358299;19;20097;-66
2023/05/08 04:10:12;;;;;;;0.10;0.10;;;;;;;16.06;75.04;100586.94;7355711;19;20486;-66
2023/05/08 04:12:45;;;;;;;0.08;0.08;;;;;;;15.95;75.84;100578.69;7354208;19;20025;-65
2023/05/08 04:15:20;;;;;;;0.10;0.10;;;;;;;16.07;75.21;100588.66;7358958;19;20019;-65
2023/05/08 04:17:54;;;;;;;0.03;0.03;;;;;;;16.06;75.15;100589.56;7357274;19;20014;-65
2023/05/08 04:20:23;;;;;;;0.10;0.10;;;;;;;16.05;75.81;100606.31;7358930;19;20027;-65
2023/05/08 04:22:51;;;;;;;0.00;0.00;;;;;;;16.05;75.45;100601.03;7356894;19;20022;-65
2023/05/08 04:25:18;;;;;;;0.00;0.00;;;;;;;16.02;76.48;100591.53;7358945;19;22539;-65
2023/05/08 04:27:44;;;;;;;0.10;0.10;;;;;;;16.02;75.62;100590.66;7357892;19;20039;-65
2023/05/08 04:30:10;;;;;;;0.10;0.10;;;;;;;16.02;75.33;100585.41;7355207;19;20011;-65
2023/05/08 04:32:37;;;;;;;0.10;0.10;;;;;;;16.04;74.07;100589.66;7354213;19;20014;-65
2023/05/08 04:35:03;;;;;;;0.10;0.10;;;;;;;16.01;74.93;100583.66;7358690;19;20022;-63
2023/05/08 04:37:32;;;;;;;0.10;0.10;;;;;;;16.00;75.88;100580.19;7359467;19;20047;-65
2023/05/08 04:39:59;;;;;;;0.10;0.10;;;;;;;16.00;76.17;100592.50;7351942;19;20090;-65
2023/05/08 04:42:25;;;;;;;0.10;0.10;;;;;;;16.00;75.88;100589.88;7359880;19;20011;-65
2023/05/08 04:44:51;;;;;;;0.10;0.10;;;;;;;15.98;75.78;100582.06;7355880;19;20006;-65
2023/05/08 04:47:17;;;;;;;0.10;0.10;;;;;;;15.98;75.54;100568.03;7360290;19;20015;-65
2023/05/08 04:49:43;;;;;;;0.00;0.00;;;;;;;15.87;76.60;100550.09;7354963;19;20021;-65
2023/05/08 04:52:09;;;;;;;0.10;0.10;;;;;;;15.99;76.08;100578.47;7356956;19;20467;-65
2023/05/08 04:54:34;;;;;;;0.08;0.08;;;;;;;16.00;76.61;100563.53;7356362;19;20018;-65
2023/05/08 04:57:00;;;;;;;0.00;0.00;;;;;;;16.02;75.80;100574.88;7359554;19;20018;-65
2023/05/08 04:59:26;;;;;;;0.05;0.05;;;;;;;16.04;75.98;100567.72;7355398;19;20021;-65
2023/05/08 05:01:51;;;;;;;0.00;0.00;;;;;;;16.02;76.07;100575.72;7359515;19;20022;-65
2023/05/08 05:04:17;;;;;;;0.10;0.10;;;;;;;16.06;75.56;100577.25;7350959;19;20521;-66
2023/05/08 05:06:42;;;;;;;0.10;0.10;;;;;;;16.07;75.80;100578.13;7354482;19;20890;-65
2023/05/08 05:09:08;;;;;;;0.10;0.10;;;;;;;16.07;75.23;100576.34;7351712;19;20026;-65
2023/05/08 05:11:34;;;;;;;0.10;0.10;;;;;;;16.08;75.46;100579.84;7358576;19;20459;-65
2023/05/08 05:13:59;;;;;;;0.10;0.10;;;;;;;15.97;74.90;100572.44;7347607;19;20043;-65
2023/05/08 05:16:26;;;;;;;0.00;0.00;;;;;;;16.10;75.25;100583.25;7354883;19;20010;-65
2023/05/08 05:18:52;;;;;;;0.10;0.10;;;;;;;16.07;75.79;100586.03;7356254;19;20622;-65
2023/05/08 05:21:17;;;;;;;0.00;0.00;;;;;;;16.11;75.65;100595.47;7356662;19;20022;-65
2023/05/08 05:23:43;;;;;;;0.10;0.10;;;;;;;16.14;75.48;100597.13;7356868;19;20003;-65
2023/05/08 05:26:08;;;;;;;0.10;0.10;;;;;;;16.14;75.70;100594.50;7357008;19;20077;-65
2023/05/08 05:28:34;;;;;;;0.10;0.10;;;;;;;16.15;75.74;100594.41;7352653;19;20011;-65
2023/05/08 05:30:59;;;;;;;0.10;0.10;;;;;;;16.16;75.83;100590.84;7357119;19;20019;-65
2023/05/08 05:33:25;;;;;;;0.10;0.10;;;;;;;16.19;74.77;100603.03;7355239;19;20006;-65
2023/05/08 05:35:50;;;;;;;0.10;0.10;;;;;;;16.21;75.38;100601.16;7357961;19;20526;-64
2023/05/08 05:38:15;;;;;;;0.05;0.05;;;;;;;16.17;75.17;100589.06;7356783;19;20022;-64
2023/05/08 05:40:41;;;;;;;0.10;0.10;;;;;;;16.24;74.90;100601.88;7356656;19;20022;-64
2023/05/08 05:43:06;;;;;;;0.00;0.00;;;;;;;16.26;74.91;100607.94;7352870;19;20371;-65
2023/05/08 05:45:32;;;;;;;0.10;0.10;;;;;;;16.26;75.10;100594.75;7353636;19;20027;-64
2023/05/08 05:47:57;;;;;;;0.05;0.05;;;;;;;16.00;74.91;100558.25;7356125;19;20062;-64
2023/05/08 05:50:23;;;;;;;0.00;0.00;;;;;;;16.28;75.40;100603.44;7353914;19;20028;-64
2023/05/08 05:52:48;;;;;;;0.00;0.00;;;;;;;16.29;75.33;100599.03;7356834;19;20014;-64
2023/05/08 05:55:14;;;;;;;0.00;0.00;;;;;;;16.30;75.67;100598.94;7354005;19;20050;-63
2023/05/08 05:57:39;;;;;;;0.10;0.10;;;;;;;16.31;75.13;100600.66;7349888;19;20027;-64
2023/05/08 06:00:05;;;;;;;0.10;0.10;;;;;;;16.33;75.24;100598.81;7349806;19;20038;-64
2023/05/08 06:02:32;;;;;;;0.10;0.10;;;;;;;16.33;75.82;100593.53;7354107;19;20034;-64
2023/05/08 06:04:58;;;;;;;0.03;0.03;;;;;;;16.09;74.60;100557.84;7362014;19;20765;-64
2023/05/08 06:07:24;;;;;;;0.10;0.10;;;;;;;16.32;75.48;100602.38;7356799;19;20098;-64
2023/05/08 06:09:50;;;;;;;0.10;0.10;;;;;;;16.34;75.90;100603.16;7361380;19;20556;-64
2023/05/08 06:12:17;;;;;;;0.10;0.10;;;;;;;16.41;74.67;100624.78;7356157;19;20011;-63
2023/05/08 06:14:42;;;;;;;0.10;0.10;;;;;;;16.42;75.57;100610.66;7359935;19;20138;-64
2023/05/08 06:17:08;;;;;;;0.00;0.00;;;;;;;16.44;75.92;100613.25;7359784;19;20348;-64
2023/05/08 06:19:33;;;;;;;0.00;0.00;;;;;;;16.45;74.71;100612.31;7358364;19;20014;-64
2023/05/08 06:21:59;;;;;;;0.10;0.10;;;;;;;16.46;75.75;100616.66;7358988;19;20094;-63
2023/05/08 06:24:24;;;;;;;0.10;0.10;;;;;;;16.47;76.10;100613.94;7360459;19;20777;-64
2023/05/08 06:26:49;;;;;;;0.10;0.10;;;;;;;16.49;75.82;100616.53;7352845;19;20023;-63
2023/05/08 06:29:15;;;;;;;0.00;0.00;;;;;;;16.51;75.35;100615.50;7361063;19;20010;-63
2023/05/08 06:31:40;;;;;;;0.03;0.03;;;;;;;16.53;75.34;100612.81;7356437;19;20121;-64
2023/05/08 06:34:06;;;;;;;0.10;0.10;;;;;;;16.56;75.35;100604.75;7360598;19;20007;-63
2023/05/08 06:36:31;;;;;;;0.10;0.10;;;;;;;16.57;75.72;100601.16;7356517;19;20114;-63
2023/05/08 06:38:56;;;;;;;0.10;0.10;;;;;;;16.56;75.65;100600.31;7352515;19;20010;-64
2023/05/08 06:41:22;;;;;;;0.10;0.10;;;;;;;16.29;75.69;100552.44;7357459;19;20660;-63
2023/05/08 06:43:47;;;;;;;0.10;0.10;;;;;;;16.61;75.40;100616.75;7359135;19;20710;-64
2023/05/08 06:46:13;;;;;;;0.10;0.10;;;;;;;16.65;75.55;100612.19;7345444;19;20657;-64
2023/05/08 06:48:38;;;;;;;0.10;0.10;;;;;;;16.66;75.51;100616.53;7345497;19;20074;-64
2023/05/08 06:51:04;;;;;;;0.08;0.08;;;;;;;16.67;76.31;100620.88;7357878;19;20011;-64
2023/05/08 06:53:29;;;;;;;0.10;0.10;;;;;;;16.67;75.67;100612.13;7359868;19;20736;-63
2023/05/08 06:55:57;;;;;;;0.03;0.03;;;;;;;16.73;75.61;100614.50;7358889;19;20070;-63
2023/05/08 06:58:23;;;;;;;0.08;0.08;;;;;;;16.76;76.10;100609.06;7358092;19;20792;-64
2023/05/08 07:00:48;;;;;;;0.10;0.10;;;;;;;16.77;75.74;100611.63;7358715;19;20018;-63
2023/05/08 07:03:13;;;;;;;0.10;0.10;;;;;;;16.83;75.27;100627.16;7356547;19;20022;-63
2023/05/08 07:05:39;;;;;;;0.05;0.05;;;;;;;16.85;75.16;100604.19;7341529;19;20010;-64
2023/05/08 07:08:04;;;;;;;0.08;0.08;;;;;;;16.91;74.54;100610.94;7351904;19;20446;-63
2023/05/08 07:10:30;;;;;;;0.10;0.10;;;;;;;16.95;74.75;100603.72;7354863;19;20404;-64
2023/05/08 07:12:55;;;;;;;0.08;0.08;;;;;;;16.96;74.27;100597.50;7354958;19;20493;-63
2023/05/08 07:15:21;;;;;;;0.10;0.10;;;;;;;16.96;74.18;100593.09;7350951;19;20010;-63
2023/05/08 07:17:46;;;;;;;0.00;0.00;;;;;;;16.91;75.40;100592.47;7357840;19;20014;-63
2023/05/08 07:20:12;;;;;;;0.08;0.08;;;;;;;16.92;74.75;100593.31;7356794;19;20007;-63
2023/05/08 07:22:37;;;;;;;0.05;0.05;;;;;;;16.97;74.54;100596.56;7359378;19;20010;-63
2023/05/08 07:25:03;;;;;;;0.10;0.10;;;;;;;16.96;74.91;100587.81;7350480;19;20578;-63
2023/05/08 07:27:29;;;;;;;0.10;0.10;;;;;;;16.94;75.12;100594.13;7354565;19;20040;-63
2023/05/08 07:29:56;;;;;;;0.10;0.10;;;;;;;17.02;75.12;100600.69;7353635;19;20098;-63
2023/05/08 07:32:21;;;;;;;0.00;0.00;;;;;;;16.95;75.59;100577.34;7354837;19;20040;-63
2023/05/08 07:34:47;;;;;;;0.10;0.10;;;;;;;17.11;75.60;100599.38;7356676;19;20006;-63
2023/05/08 07:37:12;;;;;;;0.10;0.10;;;;;;;17.16;75.31;100597.34;7351429;19;20010;-63
2023/05/08 07:39:38;;;;;;;0.10;0.10;;;;;;;17.21;75.65;100597.13;7353519;19;20006;-63
2023/05/08 07:42:03;;;;;;;0.10;0.10;;;;;;;17.27;75.35;100589.72;7357652;19;20345;-63
2023/05/08 07:44:32;;;;;;;0.10;0.10;;;;;;;17.38;74.92;100592.63;7350228;19;20007;-63
2023/05/08 07:46:57;;;;;;;0.10;0.10;;;;;;;17.42;75.37;100592.50;7356486;19;20471;-63
2023/05/08 07:49:23;;;;;;;0.10;0.10;;;;;;;17.47;74.69;100595.75;7354585;19;20046;-63
2023/05/08 07:51:48;;;;;;;0.10;0.10;;;;;;;17.52;74.87;100599.84;7354013;19;20018;-63
2023/05/08 07:54:14;;;;;;;0.10;0.10;;;;;;;17.56;74.90;100600.53;7354624;19;20573;-63
2023/05/08 07:56:39;;;;;;;0.10;0.10;;;;;;;17.60;74.94;100596.81;7351280;19;20015;-63
2023/05/08 07:59:04;;;;;;;0.03;0.03;;;;;;;17.64;74.98;100603.63;7353126;19;20006;-63
2023/05/08 08:01:30;;;;;;;0.10;0.10;;;;;;;17.69;74.55;100606.88;7354256;19;20019;-63
2023/05/08 08:03:55;;;;;;;0.10;0.10;;;;;;;17.72;74.77;100611.13;7354661;19;21010;-63
2023/05/08 08:06:21;;;;;;;0.10;0.10;;;;;;;17.76;74.17;100626.78;7357281;19;20043;-63
2023/05/08 08:08:46;;;;;;;0.10;0.10;;;;;;;17.70;74.27;100608.59;7363599;19;20006;-63
2023/05/08 08:11:12;;;;;;;0.10;0.10;;;;;;;17.75;74.33;100617.16;7362388;19;20036;-63
2023/05/08 08:13:37;;;;;;;0.10;0.10;;;;;;;17.78;74.11;100619.59;7354937;19;20018;-63
2023/05/08 08:16:03;;;;;;;0.10;0.10;;;;;;;17.69;74.26;100600.72;7356824;19;20039;-64
2023/05/08 08:18:28;;;;;;;0.10;0.10;;;;;;;17.82;74.86;100617.66;7353834;19;20067;-63
2023/05/08 08:20:54;;;;;;;0.10;0.10;;;;;;;17.88;74.12;100627.88;7357537;19;20089;-63
2023/05/08 08:23:19;;;;;;;0.10;0.10;;;;;;;17.92;74.21;100623.31;7354785;19;20030;-63
2023/05/08 08:25:45;;;;;;;0.10;0.10;;;;;;;17.95;74.31;100623.16;7351565;19;20803;-64
2023/05/08 08:28:10;;;;;;;0.10;0.10;;;;;;;17.97;74.85;100602.75;7352438;19;20033;-64
2023/05/08 08:30:36;;;;;;;0.10;0.10;;;;;;;18.06;74.52;100618.13;7350459;19;20014;-63
2023/05/08 08:33:02;;;;;;;0.10;0.10;;;;;;;18.10;74.41;100606.44;7353915;19;20031;-64
2023/05/08 08:35:29;;;;;;;0.10;0.10;;;;;;;18.13;74.99;100606.25;7353219;19;20014;-64
2023/05/08 08:37:55;;;;;;;0.03;0.03;;;;;;;18.21;74.88;100608.50;7356143;19;20482;-64
2023/05/08 08:40:21;;;;;;;0.10;0.10;;;;;;;18.26;74.38;100606.44;7354663;19;20030;-64
2023/05/08 08:42:46;;;;;;;0.10;0.10;;;;;;;18.32;73.75;100604.28;7353654;19;20544;-64
2023/05/08 08:45:12;;;;;;;0.10;0.10;;;;;;;18.39;74.27;100596.84;7351099;19;20011;-64
2023/05/08 08:47:41;;;;;;;0.10;0.10;;;;;;;18.48;74.69;100590.22;7352778;19;20470;-64
2023/05/08 08:50:08;;;;;;;0.10;0.10;;;;;;;18.55;74.44;100589.78;7349269;19;20024;-64
2023/05/08 08:53:03;;;;;;;0.10;0.10;;;;;;;18.67;74.22;100597.00;7352121;19;20363;-64
2023/05/08 08:55:29;;;;;;;0.10;0.10;;;;;;;18.67;74.13;100594.34;7251769;19;2004663;-64
2023/05/08 08:58:19;;;;;;;0.10;0.10;;;;;;;18.83;74.14;100596.13;7353649;19;20026;-64
2023/05/08 09:00:46;;;;;;;0.10;0.10;;;;;;;18.87;74.05;100598.50;7335351;19;20006;-64
2023/05/08 09:03:13;;;;;;;0.10;0.10;;;;;;;18.91;74.29;100591.25;7342355;19;20010;-64
2023/05/08 09:05:39;;;;;;;0.10;0.10;;;;;;;18.98;74.03;100599.66;7348522;19;20015;-64
2023/05/08 09:08:06;;;;;;;0.10;0.10;;;;;;;19.02;74.03;100602.03;7355655;19;20690;-64
2023/05/08 09:10:31;;;;;;;0.10;0.10;;;;;;;19.08;73.25;100598.19;7349183;19;20018;-65
2023/05/08 09:12:57;;;;;;;0.10;0.10;;;;;;;19.15;73.58;100596.84;7337839;19;20014;-65
2023/05/08 09:15:22;;;;;;;0.10;0.10;;;;;;;19.20;73.69;100594.78;7351549;19;20038;-65
2023/05/08 09:17:47;;;;;;;0.10;0.10;;;;;;;19.35;73.41;100599.16;7352235;19;20806;-65
2023/05/08 09:20:14;;;;;;;0.10;0.10;;;;;;;19.37;73.32;100580.53;7351879;19;20027;-64
2023/05/08 09:22:41;;;;;;;0.05;0.05;;;;;;;19.57;73.47;100592.56;7345381;19;20364;-65
2023/05/08 09:25:07;;;;;;;0.10;0.10;;;;;;;19.70;73.19;100598.81;7349434;19;20014;-65
2023/05/08 09:27:33;;;;;;;0.10;0.10;;;;;;;19.86;73.07;100598.69;7351746;19;20512;-65
2023/05/08 09:30:01;;;;;;;0.10;0.10;;;;;;;20.05;73.08;100579.84;7346894;19;20323;-65
2023/05/08 09:32:31;;;;;;;0.00;0.00;;;;;;;20.28;72.95;100587.19;7350357;19;20483;-65
2023/05/08 09:34:57;;;;;;;0.10;0.10;;;;;;;20.42;72.32;100603.00;7349089;19;20026;-65
2023/05/08 09:37:24;;;;;;;0.10;0.10;;;;;;;20.59;71.87;100599.31;7349883;19;20560;-65
2023/05/08 09:39:49;;;;;;;0.10;0.10;;;;;;;20.66;71.82;100589.13;7350880;19;20021;-65
2023/05/08 09:42:15;;;;;;;0.10;0.10;;;;;;;20.84;71.79;100616.25;7351135;19;20014;-65
2023/05/08 09:44:46;;;;;;;0.10;0.10;;;;;;;20.95;71.53;100611.91;7349839;19;20288;-65
2023/05/08 09:47:14;;;;;;;0.03;0.03;;;;;;;20.96;71.29;100613.63;7351979;19;20010;-65
2023/05/08 09:50:05;;;;;;;0.10;0.10;;;;;;;21.02;70.95;100611.50;7350161;19;20015;-65
2023/05/08 09:52:31;;;;;;;0.10;0.10;;;;;;;20.93;71.19;100597.91;7247668;19;2004362;-65
2023/05/08 09:55:01;;;;;;;0.10;0.10;;;;;;;20.92;71.40;100604.16;7349666;19;20021;-65
2023/05/08 09:57:27;;;;;;;0.10;0.10;;;;;;;20.97;71.47;100607.34;7347901;19;20109;-65
2023/05/08 10:00:12;;;;;;;0.03;0.03;;;;;;;21.14;71.51;100602.72;7348107;19;20792;-65
2023/05/08 10:02:52;;;;;;;0.10;0.10;;;;;;;21.21;71.54;100601.34;7349309;19;20003;-65
2023/05/08 10:05:31;;;;;;;0.10;0.10;;;;;;;21.36;71.09;100600.31;7349573;19;20318;-65
2023/05/08 10:07:57;;;;;;;0.10;0.10;;;;;;;21.40;71.30;100598.28;7350294;19;20006;-65
2023/05/08 10:10:25;;;;;;;0.10;0.10;;;;;;;21.52;71.37;100599.25;7347508;19;20023;-65
2023/05/08 10:12:52;;;;;;;0.10;0.10;;;;;;;21.69;71.11;100604.22;7350442;19;20006;-65
2023/05/08 10:15:19;;;;;;;0.10;0.10;;;;;;;21.79;70.29;100597.28;7350581;19;20034;-65
2023/05/08 10:18:03;;;;;;;0.10;0.10;;;;;;;22.09;70.66;100599.53;7348448;19;20006;-66
2023/05/08 10:20:30;;;;;;;0.08;0.08;;;;;;;22.10;70.22;100605.72;7348534;19;20357;-65
2023/05/08 10:22:56;;;;;;;0.10;0.10;;;;;;;22.13;68.94;100608.19;7350180;19;20356;-66
2023/05/08 10:25:22;;;;;;;0.10;0.10;;;;;;;22.13;68.91;100600.22;7349512;19;20031;-66
2023/05/08 10:28:01;;;;;;;0.10;0.10;;;;;;;22.16;69.07;100608.84;7352387;19;22256;-65
2023/05/08 10:30:29;;;;;;;0.10;0.10;;;;;;;21.94;69.07;100577.56;7345636;19;20006;-65
2023/05/08 10:32:57;;;;;;;0.10;0.10;;;;;;;22.05;69.88;100603.41;7346737;19;20014;-66
2023/05/08 10:35:23;;;;;;;0.10;0.10;;;;;;;21.85;70.33;100570.28;7349880;19;22031;-66
2023/05/08 10:37:50;;;;;;;0.10;0.10;;;;;;;22.08;70.37;100578.41;7349558;19;20119;-66
2023/05/08 10:40:17;;;;;;;0.10;0.10;;;;;;;22.32;70.75;100605.91;7348361;19;20091;-64
2023/05/08 10:42:44;;;;;;;0.10;0.10;;;;;;;22.57;70.17;100598.78;7349566;19;20022;-66
2023/05/08 10:45:10;;;;;;;0.10;0.10;;;;;;;22.81;69.53;100602.25;7347276;19;20025;-66
2023/05/08 10:48:03;;;;;;;0.10;0.10;;;;;;;23.09;69.45;100594.84;7348976;19;20014;-66
2023/05/08 10:51:01;;;;;;;0.10;0.10;;;;;;;23.39;68.53;100597.81;7253511;19;2004292;-66
2023/05/08 10:53:45;;;;;;;0.10;0.10;;;;;;;23.50;68.33;100604.97;7252712;19;2004570;-65
2023/05/08 10:56:10;;;;;;;0.03;0.03;;;;;;;23.48;68.12;100607.75;7353564;19;20015;-66
2023/05/08 10:58:38;;;;;;;0.10;0.10;;;;;;;23.51;68.14;100606.66;7354397;19;20007;-66
2023/05/08 11:01:06;;;;;;;0.00;0.00;;;;;;;23.55;68.07;100603.63;7354318;19;20017;-66
2023/05/08 11:03:43;;;;;;;0.10;0.10;;;;;;;23.48;67.46;100606.91;7351752;19;20014;-66
2023/05/08 11:06:09;;;;;;;0.10;0.10;;;;;;;23.42;66.78;100618.03;7352808;19;20729;-66
2023/05/08 11:08:46;;;;;;;0.10;0.10;;;;;;;23.30;67.34;100599.38;7355711;19;20006;-66
2023/05/08 11:11:26;;;;;;;0.10;0.10;;;;;;;23.39;67.04;100624.47;7354828;19;20016;-66
2023/05/08 11:14:07;;;;;;;0.10;0.10;;;;;;;23.34;67.51;100626.63;7354241;19;20011;-66
2023/05/08 11:16:55;;;;;;;0.10;0.10;;;;;;;23.36;66.87;100618.50;7353437;19;20684;-66
2023/05/08 11:19:25;;;;;;;0.10;0.10;;;;;;;23.33;66.79;100624.94;7353614;19;20002;-66
2023/05/08 11:22:12;;;;;;;0.10;0.10;;;;;;;23.02;66.49;100574.03;7355722;19;20018;-66
2023/05/08 11:24:39;;;;;;;0.00;0.00;;;;;;;23.23;67.36;100630.13;7354120;19;20066;-66
2023/05/08 11:27:04;;;;;;;0.10;0.10;;;;;;;23.15;67.08;100621.03;7353278;19;20022;-65
2023/05/08 11:29:30;;;;;;;0.10;0.10;;;;;;;23.01;64.59;100614.94;7359533;19;20022;-66
2023/05/08 11:31:55;;;;;;;0.10;0.10;;;;;;;23.00;66.08;100621.22;7355729;19;20066;-64